createdAt,value
2022-08-01T00:00:46.309Z,66.54
2022-08-01T00:03:50.904Z,62.91
2022-08-01T00:06:54.847Z,61.65
2022-08-01T00:09:58.830Z,57.35
2022-08-01T00:13:02.798Z,58.49
2022-08-01T00:16:06.760Z,60.84
2022-08-01T00:19:10.695Z,61.32
2022-08-01T00:22:14.545Z,62.99
2022-08-01T00:25:18.872Z,64.39
2022-08-01T00:28:23.107Z,63.97
2022-08-01T00:31:27.139Z,65.91
2022-08-01T00:34:30.894Z,65.57
2022-08-01T00:37:34.814Z,67.85
2022-08-01T00:40:39.389Z,69.79
2022-08-01T00:43:43.295Z,71.37
2022-08-01T00:46:47.446Z,72.16
2022-08-01T00:49:56.849Z,73.00
2022-08-01T00:53:01.707Z,73.05
2022-08-01T00:56:06.171Z,74.33
2022-08-01T00:59:11.060Z,74.49
2022-08-01T01:02:15.930Z,74.91
2022-08-01T01:05:20.286Z,74.85
2022-08-01T01:08:32.441Z,73.55
2022-08-01T01:11:43.341Z,70.89
2022-08-01T01:14:53.739Z,71.04
2022-08-01T01:18:04.415Z,70.58
2022-08-01T01:21:11.728Z,72.50
2022-08-01T01:24:34.313Z,72.08
2022-08-01T01:27:51.904Z,71.80
2022-08-01T01:30:57.530Z,71.05
2022-08-01T01:34:02.741Z,70.87
2022-08-01T01:37:08.658Z,72.27
2022-08-01T01:40:13.494Z,72.46
2022-08-01T01:43:18.714Z,73.24
2022-08-01T01:46:25.000Z,73.43
2022-08-01T01:49:30.367Z,72.62
2022-08-01T01:52:35.279Z,72.07
2022-08-01T01:55:49.265Z,71.73
2022-08-01T01:58:56.004Z,67.37
2022-08-01T02:02:08.963Z,66.42
2022-08-01T02:05:13.671Z,63.62
2022-08-01T02:08:18.704Z,62.82
2022-08-01T02:11:24.049Z,62.09
2022-08-01T02:14:31.133Z,61.14
2022-08-01T02:17:40.183Z,61.44
2022-08-01T02:20:44.133Z,64.32
2022-08-01T02:23:49.145Z,64.96
2022-08-01T02:26:56.592Z,67.87
2022-08-01T02:30:06.460Z,68.05
2022-08-01T02:33:22.877Z,68.19
2022-08-01T02:36:31.979Z,68.83
2022-08-01T02:39:38.690Z,70.37
2022-08-01T02:42:46.025Z,71.53
2022-08-01T02:45:52.046Z,72.56
2022-08-01T02:48:58.847Z,72.43
2022-08-01T02:52:06.530Z,71.93
2022-08-01T02:55:11.718Z,69.51
2022-08-01T02:58:17.799Z,70.90
2022-08-01T03:01:23.519Z,72.30
2022-08-01T03:04:31.253Z,71.72
2022-08-01T03:07:40.467Z,70.62
2022-08-01T03:10:46.875Z,71.34
2022-08-01T03:13:50.919Z,72.93
2022-08-01T03:16:56.192Z,72.41
2022-08-01T03:20:01.046Z,73.61
2022-08-01T03:23:10.932Z,72.98
2022-08-01T03:26:15.308Z,71.78
2022-08-01T03:29:21.665Z,71.32
2022-08-01T03:32:25.659Z,72.00
2022-08-01T03:35:32.691Z,71.46
2022-08-01T03:38:40.062Z,70.66
2022-08-01T03:41:45.669Z,71.36
2022-08-01T03:44:55.220Z,72.05
2022-08-01T03:48:03.669Z,73.52
2022-08-01T03:51:08.216Z,72.99
2022-08-01T03:54:13.074Z,73.38
2022-08-01T03:57:20.205Z,72.75
2022-08-01T04:00:41.791Z,74.03
2022-08-01T04:03:46.419Z,73.69
2022-08-01T04:06:55.559Z,75.58
2022-08-01T04:09:59.574Z,75.87
2022-08-01T04:13:04.259Z,74.93
2022-08-01T04:16:08.413Z,75.39
2022-08-01T04:19:12.697Z,75.79
2022-08-01T04:22:17.591Z,77.35
2022-08-01T04:25:29.343Z,79.38
2022-08-01T04:28:38.169Z,81.44
2022-08-01T04:31:44.254Z,81.72
2022-08-01T04:34:48.969Z,81.59
2022-08-01T04:37:53.723Z,82.28
2022-08-01T04:40:58.781Z,83.17
2022-08-01T04:44:04.739Z,84.01
2022-08-01T04:47:09.735Z,81.82
2022-08-01T04:50:13.623Z,82.22
2022-08-01T04:53:19.233Z,84.53
2022-08-01T04:56:23.513Z,88.47
2022-08-01T04:59:43.287Z,91.52
2022-08-01T05:02:48.408Z,91.40
2022-08-01T05:05:52.468Z,93.02
2022-08-01T05:08:56.277Z,95.35
2022-08-01T05:12:00.635Z,95.92
2022-08-01T05:15:05.379Z,92.62
2022-08-01T05:18:09.590Z,89.39
2022-08-01T05:21:13.895Z,88.84
2022-08-01T05:24:17.770Z,88.82
2022-08-01T05:27:21.977Z,86.69
2022-08-01T05:30:25.982Z,89.13
2022-08-01T05:33:30.323Z,89.04
2022-08-01T05:36:34.198Z,89.44
2022-08-01T05:39:38.354Z,89.21
2022-08-01T05:42:42.632Z,88.45
2022-08-01T05:45:47.660Z,87.70
2022-08-01T05:48:52.560Z,88.20
2022-08-01T05:51:58.026Z,89.66
2022-08-01T05:55:01.967Z,89.15
2022-08-01T05:58:06.241Z,88.18
2022-08-01T06:01:10.673Z,88.80
2022-08-01T06:04:15.202Z,90.28
2022-08-01T06:07:19.294Z,87.58
2022-08-01T06:10:23.315Z,87.25
2022-08-01T06:13:27.347Z,87.71
2022-08-01T06:16:31.534Z,87.07
2022-08-01T06:19:35.396Z,87.37
2022-08-01T06:22:40.158Z,87.59
2022-08-01T06:25:45.113Z,87.77
2022-08-01T06:28:49.259Z,88.44
2022-08-01T06:31:53.285Z,88.12
2022-08-01T06:34:57.653Z,89.49
2022-08-01T06:38:01.588Z,88.85
2022-08-01T06:41:05.547Z,88.54
2022-08-01T06:44:09.764Z,89.04
2022-08-01T06:47:13.524Z,89.31
2022-08-01T06:50:17.372Z,92.38
2022-08-01T06:53:24.667Z,93.72
2022-08-01T06:56:28.631Z,94.96
2022-08-01T06:59:32.454Z,95.77
2022-08-01T07:02:38.091Z,96.64
2022-08-01T07:05:41.767Z,97.36
2022-08-01T07:08:45.907Z,95.55
2022-08-01T07:11:50.311Z,95.84
2022-08-01T07:14:54.351Z,94.46
2022-08-01T07:17:58.895Z,95.43
2022-08-01T07:21:04.753Z,96.81
2022-08-01T07:24:15.122Z,98.13
2022-08-01T07:27:23.024Z,96.93
2022-08-01T07:30:28.484Z,96.61
2022-08-01T07:33:48.762Z,95.74
2022-08-01T07:36:54.171Z,95.12
2022-08-01T07:39:58.251Z,94.59
2022-08-01T07:43:02.539Z,92.63
2022-08-01T07:46:06.687Z,93.21
2022-08-01T07:49:10.888Z,94.02
2022-08-01T07:52:15.323Z,95.89
2022-08-01T07:55:19.420Z,94.27
2022-08-01T07:58:23.523Z,93.94
2022-08-01T08:01:28.656Z,94.29
2022-08-01T08:04:32.630Z,94.37
2022-08-01T08:07:36.622Z,93.68
2022-08-01T08:10:40.474Z,95.18
2022-08-01T08:13:45.521Z,96.65
2022-08-01T08:16:49.972Z,97.08
2022-08-01T08:19:53.987Z,98.92
2022-08-01T08:22:59.912Z,98.20
2022-08-01T08:26:03.806Z,97.83
2022-08-01T08:29:08.362Z,94.98
2022-08-01T08:32:12.910Z,95.93
2022-08-01T08:35:23.331Z,97.22
2022-08-01T08:38:40.952Z,95.29
2022-08-01T08:41:45.564Z,96.82
2022-08-01T08:44:56.238Z,95.32
2022-08-01T08:48:00.844Z,96.18
2022-08-01T08:51:05.289Z,95.80
2022-08-01T08:54:09.476Z,97.56
2022-08-01T08:57:15.605Z,99.26
2022-08-01T09:00:19.768Z,100.00
2022-08-01T09:03:23.415Z,100.00
2022-08-01T09:06:27.660Z,100.00
2022-08-01T09:09:31.463Z,99.11
2022-08-01T09:12:36.873Z,97.91
2022-08-01T09:15:45.935Z,98.34
2022-08-01T09:18:53.417Z,97.88
2022-08-01T09:21:59.299Z,97.83
2022-08-01T09:25:07.578Z,98.07
2022-08-01T09:28:12.047Z,98.52
2022-08-01T09:31:18.233Z,97.71
2022-08-01T09:34:29.499Z,98.00
2022-08-01T09:37:37.016Z,98.67
2022-08-01T09:41:09.278Z,98.01
2022-08-01T09:44:13.094Z,97.86
2022-08-01T09:47:18.432Z,97.63
2022-08-01T09:50:40.392Z,96.74
2022-08-01T09:53:51.382Z,98.10
2022-08-01T09:57:09.203Z,98.38
2022-08-01T10:00:43.761Z,98.33
2022-08-01T10:03:44.075Z,98.99
2022-08-01T10:06:51.366Z,98.96
2022-08-01T10:09:55.502Z,99.26
2022-08-01T10:13:00.903Z,99.29
2022-08-01T10:16:05.848Z,98.93
2022-08-01T10:19:11.354Z,99.68
2022-08-01T10:22:20.730Z,99.14
2022-08-01T10:25:42.585Z,98.34
2022-08-01T10:28:50.349Z,99.02
2022-08-01T10:31:54.563Z,98.64
2022-08-01T10:35:06.889Z,97.72
2022-08-01T10:38:13.851Z,98.43
2022-08-01T10:41:20.776Z,98.78
2022-08-01T10:44:26.390Z,99.21
2022-08-01T10:47:50.550Z,100.00
2022-08-01T10:50:56.422Z,99.54
2022-08-01T10:54:07.444Z,99.30
2022-08-01T10:57:14.217Z,99.42
2022-08-01T11:00:23.773Z,99.55
2022-08-01T11:03:56.873Z,98.96
2022-08-01T11:07:07.333Z,100.00
2022-08-01T11:10:17.417Z,100.00
2022-08-01T11:13:41.678Z,100.00
2022-08-01T11:16:46.562Z,100.00
2022-08-01T11:20:06.759Z,100.00
2022-08-01T11:23:14.499Z,100.00
2022-08-01T11:26:29.432Z,100.00
2022-08-01T11:29:34.033Z,100.00
2022-08-01T11:33:12.143Z,100.00
2022-08-01T11:36:22.254Z,100.00
2022-08-01T11:39:36.774Z,100.00
2022-08-01T11:42:42.833Z,100.00
2022-08-01T11:45:54.651Z,100.00
2022-08-01T11:49:18.011Z,100.00
2022-08-01T11:52:27.602Z,100.00
2022-08-01T11:55:32.508Z,100.00
2022-08-01T11:58:36.478Z,100.00
2022-08-01T12:01:40.517Z,100.00
2022-08-01T12:05:05.490Z,100.00
2022-08-01T12:08:12.405Z,100.00
2022-08-01T12:11:16.537Z,100.00
2022-08-01T12:14:21.695Z,100.00
2022-08-01T12:17:39.834Z,100.00
2022-08-01T12:20:56.913Z,100.00
2022-08-01T12:24:04.864Z,100.00
2022-08-01T12:27:11.497Z,100.00
2022-08-01T12:30:16.827Z,100.00
2022-08-01T12:33:22.355Z,100.00
2022-08-01T12:36:30.914Z,100.00
2022-08-01T12:39:35.451Z,100.00
2022-08-01T12:42:41.443Z,100.00
2022-08-01T12:45:56.615Z,100.00
2022-08-01T12:49:01.336Z,100.00
2022-08-01T12:52:09.144Z,100.00
2022-08-01T12:55:19.500Z,100.00
2022-08-01T12:58:23.795Z,100.00
2022-08-01T13:01:29.025Z,100.00
2022-08-01T13:04:33.182Z,100.00
2022-08-01T13:07:45.680Z,100.00
2022-08-01T13:10:51.132Z,100.00
2022-08-01T13:13:55.623Z,100.00
2022-08-01T13:16:59.752Z,100.00
2022-08-01T13:20:03.968Z,100.00
2022-08-01T13:23:23.453Z,100.00
2022-08-01T13:26:52.005Z,100.00
2022-08-01T13:29:56.480Z,100.00
2022-08-01T13:33:00.865Z,100.00
2022-08-01T13:36:04.946Z,100.00
2022-08-01T13:39:28.134Z,100.00
2022-08-01T13:42:32.173Z,100.00
2022-08-01T13:45:36.688Z,100.00
2022-08-01T13:48:41.050Z,100.00
2022-08-01T13:51:45.579Z,100.00
2022-08-01T13:54:49.329Z,100.00
2022-08-01T13:57:55.004Z,100.00
2022-08-01T14:00:59.319Z,100.00
2022-08-01T14:04:04.439Z,100.00
2022-08-01T14:07:14.189Z,100.00
2022-08-01T14:10:20.674Z,100.00
2022-08-01T14:13:25.150Z,100.00
2022-08-01T14:16:34.228Z,100.00
2022-08-01T14:19:41.235Z,100.00
2022-08-01T14:22:47.149Z,100.00
2022-08-01T14:26:03.286Z,100.00
2022-08-01T14:29:09.927Z,100.00
2022-08-01T14:32:14.357Z,100.00
2022-08-01T14:35:18.372Z,100.00
2022-08-01T14:38:32.418Z,100.00
2022-08-01T14:41:38.023Z,100.00
2022-08-01T14:44:49.723Z,100.00
2022-08-01T14:47:53.945Z,100.00
2022-08-01T14:50:58.221Z,100.00
2022-08-01T14:54:02.461Z,100.00
2022-08-01T14:57:08.225Z,100.00
2022-08-01T15:00:14.682Z,100.00
2022-08-01T15:03:18.393Z,100.00
2022-08-01T15:06:22.172Z,100.00
2022-08-01T15:09:28.531Z,100.00
2022-08-01T15:12:49.579Z,100.00
2022-08-01T15:15:54.092Z,100.00
2022-08-01T15:18:57.974Z,100.00
2022-08-01T15:22:02.282Z,100.00
2022-08-01T15:25:06.789Z,100.00
2022-08-01T15:28:11.424Z,100.00
2022-08-01T15:31:15.341Z,100.00
2022-08-01T15:34:19.373Z,100.00
2022-08-01T15:37:23.348Z,100.00
2022-08-01T15:40:28.425Z,100.00
2022-08-01T15:43:32.846Z,100.00
2022-08-01T15:46:36.629Z,100.00
2022-08-01T15:49:41.605Z,100.00
2022-08-01T15:52:45.353Z,100.00
2022-08-01T15:55:52.523Z,100.00
2022-08-01T15:58:57.085Z,100.00
2022-08-01T16:02:01.888Z,100.00
2022-08-01T16:05:06.112Z,100.00
2022-08-01T16:08:10.420Z,100.00
2022-08-01T16:11:14.484Z,100.00
2022-08-01T16:14:18.566Z,100.00
2022-08-01T16:17:22.883Z,100.00
2022-08-01T16:20:26.860Z,100.00
2022-08-01T16:23:31.112Z,100.00
2022-08-01T16:26:34.969Z,100.00
2022-08-01T16:29:39.289Z,100.00
2022-08-01T16:32:45.561Z,100.00
2022-08-01T16:35:55.891Z,100.00
2022-08-01T16:39:00.665Z,100.00
2022-08-01T16:42:04.311Z,100.00
2022-08-01T16:45:08.799Z,100.00
2022-08-01T16:48:19.311Z,100.00
2022-08-01T16:51:24.749Z,100.00
2022-08-01T16:54:29.063Z,100.00
2022-08-01T16:57:37.834Z,100.00
2022-08-01T17:00:45.344Z,100.00
2022-08-01T17:04:02.001Z,100.00
2022-08-01T17:07:06.694Z,100.00
2022-08-01T17:10:12.499Z,100.00
2022-08-01T17:13:16.277Z,100.00
2022-08-01T17:16:20.426Z,100.00
2022-08-01T17:19:26.901Z,100.00
2022-08-01T17:22:37.422Z,100.00
2022-08-01T17:25:41.610Z,100.00
2022-08-01T17:28:45.656Z,100.00
2022-08-01T17:31:49.855Z,100.00
2022-08-01T17:34:53.469Z,100.00
2022-08-01T17:37:57.417Z,100.00
2022-08-01T17:41:01.384Z,100.00
2022-08-01T17:44:05.665Z,100.00
2022-08-01T17:47:10.092Z,100.00
2022-08-01T17:50:14.293Z,100.00
2022-08-01T17:53:21.281Z,100.00
2022-08-01T17:56:25.970Z,100.00
2022-08-01T17:59:30.029Z,100.00
2022-08-01T18:02:33.828Z,100.00
2022-08-01T18:05:39.257Z,100.00
2022-08-01T18:08:43.502Z,100.00
2022-08-01T18:11:48.600Z,100.00
2022-08-01T18:14:53.103Z,100.00
2022-08-01T18:17:58.660Z,100.00
2022-08-01T18:21:03.348Z,100.00
2022-08-01T18:24:07.925Z,100.00
2022-08-01T18:27:11.841Z,100.00
2022-08-01T18:30:16.062Z,100.00
2022-08-01T18:33:19.890Z,100.00
2022-08-01T18:36:33.313Z,100.00
2022-08-01T18:39:38.173Z,100.00
2022-08-01T18:42:43.286Z,100.00
2022-08-01T18:45:47.169Z,100.00
2022-08-01T18:48:51.375Z,100.00
2022-08-01T18:51:55.164Z,100.00
2022-08-01T18:54:58.984Z,100.00
2022-08-01T18:58:03.241Z,100.00
2022-08-01T21:23:54.733Z,100.00
2022-08-01T21:26:58.869Z,100.00
2022-08-01T21:30:09.503Z,100.00
2022-08-01T21:33:13.948Z,100.00
2022-08-01T21:36:19.509Z,100.00
2022-08-01T21:39:23.602Z,100.00
2022-08-01T21:42:29.477Z,100.00
2022-08-01T21:45:33.861Z,100.00
2022-08-01T21:48:38.769Z,100.00
2022-08-01T21:51:53.689Z,100.00
2022-08-01T21:55:15.467Z,100.00
2022-08-01T21:58:32.766Z,100.00
2022-08-01T22:01:51.566Z,100.00
2022-08-01T22:05:07.586Z,100.00
2022-08-01T22:08:11.870Z,100.00
2022-08-01T22:11:19.583Z,100.00
2022-08-01T22:14:25.149Z,100.00
2022-08-01T22:17:29.438Z,100.00
2022-08-01T22:20:33.455Z,100.00
2022-08-01T22:23:37.832Z,100.00
2022-08-01T22:26:42.520Z,100.00
2022-08-01T22:29:47.764Z,100.00
2022-08-01T22:33:15.123Z,100.00
2022-08-01T22:36:15.531Z,100.00
2022-08-01T22:39:19.560Z,100.00
2022-08-01T22:42:27.124Z,100.00
2022-08-01T22:45:31.352Z,100.00
2022-08-01T22:48:45.435Z,100.00
2022-08-01T22:51:54.690Z,100.00
2022-08-01T22:55:05.645Z,100.00
2022-08-01T22:58:12.303Z,100.00
2022-08-01T23:01:22.272Z,100.00
2022-08-01T23:04:34.055Z,100.00
2022-08-01T23:07:42.351Z,100.00
2022-08-01T23:10:47.116Z,100.00
2022-08-01T23:13:52.668Z,100.00
2022-08-01T23:16:58.419Z,100.00
2022-08-01T23:20:04.230Z,100.00
2022-08-01T23:23:09.062Z,100.00
2022-08-01T23:26:13.005Z,100.00
2022-08-01T23:29:19.177Z,100.00
2022-08-01T23:32:23.852Z,100.00
2022-08-01T23:35:28.491Z,97.35
2022-08-01T23:38:32.548Z,100.00
2022-08-01T23:41:57.202Z,94.04
2022-08-01T23:45:01.056Z,93.62
2022-08-01T23:48:07.611Z,92.77
2022-08-01T23:51:23.945Z,93.09
2022-08-01T23:54:29.704Z,92.88
2022-08-01T23:57:41.260Z,91.35
